createdAt,value
2023-04-10T00:02:40.254Z,101203.06
2023-04-10T00:05:42.989Z,101181.28
2023-04-10T00:08:45.269Z,101203.31
2023-04-10T00:11:47.898Z,101200.88
2023-04-10T00:14:50.369Z,101200.22
2023-04-10T00:17:55.372Z,101193.97
2023-04-10T00:20:58.010Z,101175.28
2023-04-10T00:24:00.913Z,101168.75
2023-04-10T00:27:03.318Z,101185.34
2023-04-10T00:30:07.482Z,101187.94
2023-04-10T00:33:09.905Z,101162.31
2023-04-10T00:36:12.630Z,101180.88
2023-04-10T00:39:15.556Z,101181.53
2023-04-10T00:42:18.634Z,101182.72
2023-04-10T00:45:21.104Z,101181.38
2023-04-10T00:48:24.118Z,101170.09
2023-04-10T00:51:27.150Z,101164.25
2023-04-10T00:54:31.389Z,101163.16
2023-04-10T00:57:34.140Z,101163.22
2023-04-10T01:00:36.796Z,101164.06
2023-04-10T01:03:44.032Z,101168.94
2023-04-10T01:06:55.642Z,101167.00
2023-04-10T01:10:36.446Z,101163.22
2023-04-10T01:13:46.902Z,101163.56
2023-04-10T01:17:01.592Z,101162.13
2023-04-10T01:20:13.142Z,101160.47
2023-04-10T01:23:24.861Z,101156.03
2023-04-10T01:26:50.474Z,101162.22
2023-04-10T01:29:57.985Z,101164.91
2023-04-10T01:33:03.901Z,101146.00
2023-04-10T01:36:08.465Z,101153.88
2023-04-10T01:39:12.269Z,101134.09
2023-04-10T01:42:16.688Z,101137.25
2023-04-10T01:45:22.205Z,101142.19
2023-04-10T01:48:25.497Z,101143.59
2023-04-10T01:51:30.643Z,101160.13
2023-04-10T01:54:35.746Z,101158.22
2023-04-10T01:57:38.782Z,101160.72
2023-04-10T02:00:43.156Z,101135.94
2023-04-10T02:03:46.279Z,101158.69
2023-04-10T02:07:00.120Z,101153.06
2023-04-10T02:10:09.113Z,101138.31
2023-04-10T02:13:14.706Z,101160.94
2023-04-10T02:16:19.498Z,101163.13
2023-04-10T02:19:24.914Z,101153.66
2023-04-10T02:22:27.890Z,101153.09
2023-04-10T02:25:34.109Z,101153.19
2023-04-10T02:28:40.206Z,101150.66
2023-04-10T02:31:43.383Z,101139.22
2023-04-10T02:34:46.506Z,101144.56
2023-04-10T02:37:50.721Z,101161.38
2023-04-10T02:40:53.809Z,101153.09
2023-04-10T02:43:56.340Z,101150.50
2023-04-10T02:47:00.716Z,101137.91
2023-04-10T02:50:04.922Z,101137.56
2023-04-10T02:53:08.171Z,101133.13
2023-04-10T02:56:11.885Z,101111.97
2023-04-10T02:59:14.644Z,101127.72
2023-04-10T03:02:17.366Z,101117.06
2023-04-10T03:05:20.412Z,101119.91
2023-04-10T03:08:22.828Z,101099.00
2023-04-10T03:11:26.064Z,101112.66
2023-04-10T03:14:28.580Z,101125.53
2023-04-10T03:17:31.264Z,101105.47
2023-04-10T03:20:33.774Z,101105.22
2023-04-10T03:23:37.065Z,101122.03
2023-04-10T03:26:39.534Z,101110.16
2023-04-10T03:29:42.192Z,101138.41
2023-04-10T03:32:44.765Z,101145.00
2023-04-10T03:35:47.628Z,101134.38
2023-04-10T03:38:50.137Z,101132.09
2023-04-10T03:41:52.761Z,101141.22
2023-04-10T03:44:55.581Z,101129.84
2023-04-10T03:47:59.283Z,101137.50
2023-04-10T03:51:02.986Z,101139.09
2023-04-10T03:54:05.702Z,101125.19
2023-04-10T03:57:08.067Z,101142.72
2023-04-10T04:00:11.452Z,101144.50
2023-04-10T04:03:22.265Z,101142.75
2023-04-10T04:06:25.851Z,101144.31
2023-04-10T04:09:29.129Z,101142.63
2023-04-10T04:12:31.885Z,101154.16
2023-04-10T04:15:34.846Z,101139.56
2023-04-10T04:18:38.897Z,101136.34
2023-04-10T04:21:44.484Z,101153.94
2023-04-10T04:24:47.298Z,101152.03
2023-04-10T04:27:49.921Z,101158.38
2023-04-10T04:30:54.567Z,101176.81
2023-04-10T04:33:57.307Z,101145.69
2023-04-10T04:37:00.618Z,101146.41
2023-04-10T04:40:04.390Z,101174.78
2023-04-10T04:43:07.212Z,101175.53
2023-04-10T04:46:10.303Z,101178.03
2023-04-10T04:49:13.609Z,101182.44
2023-04-10T04:52:16.658Z,101163.56
2023-04-10T04:55:19.748Z,101193.47
2023-04-10T04:58:24.635Z,101171.72
2023-04-10T05:01:27.448Z,101165.00
2023-04-10T05:04:29.973Z,101169.28
2023-04-10T05:07:33.098Z,101192.50
2023-04-10T05:10:36.781Z,101195.38
2023-04-10T05:13:42.425Z,101199.31
2023-04-10T05:16:45.561Z,101196.09
2023-04-10T05:19:48.808Z,101206.13
2023-04-10T05:22:53.027Z,101202.03
2023-04-10T05:25:56.550Z,101186.22
2023-04-10T05:28:59.647Z,101194.22
2023-04-10T05:32:04.279Z,101199.84
2023-04-10T05:35:08.242Z,101202.38
2023-04-10T05:38:10.903Z,101197.84
2023-04-10T05:41:13.498Z,101203.69
2023-04-10T05:44:16.366Z,101185.94
2023-04-10T05:47:21.738Z,101207.25
2023-04-10T05:50:24.668Z,101202.81
2023-04-10T05:53:33.048Z,101203.25
2023-04-10T05:56:35.920Z,101199.06
2023-04-10T05:59:38.917Z,101195.81
2023-04-10T06:02:42.456Z,101189.91
2023-04-10T06:05:46.746Z,101184.59
2023-04-10T06:08:49.367Z,101198.78
2023-04-10T06:11:53.475Z,101181.53
2023-04-10T06:14:56.212Z,101201.22
2023-04-10T06:17:59.128Z,101182.59
2023-04-10T06:21:02.156Z,101204.31
2023-04-10T06:24:04.863Z,101199.06
2023-04-10T06:27:07.492Z,101189.72
2023-04-10T06:30:10.949Z,101183.81
2023-04-10T06:33:13.307Z,101198.28
2023-04-10T06:36:16.807Z,101188.03
2023-04-10T06:39:19.971Z,101196.84
2023-04-10T06:42:23.597Z,101204.59
2023-04-10T06:45:28.502Z,101198.38
2023-04-10T06:48:32.539Z,101201.81
2023-04-10T06:51:34.827Z,101188.00
2023-04-10T06:54:37.438Z,101205.91
2023-04-10T06:57:40.457Z,101190.94
2023-04-10T07:00:43.169Z,101189.91
2023-04-10T07:03:45.882Z,101176.91
2023-04-10T07:06:48.538Z,101178.88
2023-04-10T07:09:50.881Z,101168.87
2023-04-10T07:12:53.479Z,101185.81
2023-04-10T07:15:56.091Z,101185.25
2023-04-10T07:18:58.976Z,101196.66
2023-04-10T07:22:01.495Z,101180.53
2023-04-10T07:25:04.387Z,101165.50
2023-04-10T07:28:06.925Z,101178.50
2023-04-10T07:31:10.686Z,101177.41
2023-04-10T07:34:13.086Z,101170.66
2023-04-10T07:37:15.863Z,101172.53
2023-04-10T07:40:18.276Z,101156.94
2023-04-10T07:43:21.313Z,101162.37
2023-04-10T07:46:23.874Z,101144.91
2023-04-10T07:49:27.192Z,101158.31
2023-04-10T07:52:29.603Z,101156.03
2023-04-10T07:55:32.368Z,101140.69
2023-04-10T07:58:34.670Z,101152.25
2023-04-10T08:01:37.383Z,101157.56
2023-04-10T08:04:40.157Z,101144.69
2023-04-10T08:07:42.553Z,101150.84
2023-04-10T08:10:45.193Z,101125.50
2023-04-10T08:13:47.592Z,101126.38
2023-04-10T08:16:50.374Z,101136.97
2023-04-10T08:19:52.840Z,101145.34
2023-04-10T08:22:58.876Z,101150.81
2023-04-10T08:26:06.110Z,101140.50
2023-04-10T08:29:08.943Z,101142.19
2023-04-10T08:32:11.376Z,101146.25
2023-04-10T08:35:13.997Z,101141.41
2023-04-10T08:38:16.348Z,101137.88
2023-04-10T08:41:20.749Z,101119.38
2023-04-10T08:44:23.164Z,101135.44
2023-04-10T08:47:28.514Z,101131.97
2023-04-10T08:50:33.870Z,101122.25
2023-04-10T08:53:43.517Z,101125.78
2023-04-10T08:56:51.267Z,101122.97
2023-04-10T08:59:53.924Z,101120.25
2023-04-10T09:02:58.478Z,101122.97
2023-04-10T09:06:05.591Z,101121.09
2023-04-10T09:09:08.230Z,101125.63
2023-04-10T09:12:14.034Z,101101.69
2023-04-10T09:15:16.608Z,101113.09
2023-04-10T09:18:19.395Z,101090.91
2023-04-10T09:21:22.130Z,101109.69
2023-04-10T09:24:25.895Z,101099.09
2023-04-10T09:27:33.701Z,101086.06
2023-04-10T09:30:41.193Z,101099.34
2023-04-10T09:33:43.615Z,101100.16
2023-04-10T09:37:01.385Z,101094.28
2023-04-10T09:40:04.850Z,101078.69
2023-04-10T09:43:25.457Z,101089.91
2023-04-10T09:46:28.862Z,101068.66
2023-04-10T09:49:45.553Z,101069.69
2023-04-10T09:52:57.271Z,101070.31
2023-04-10T09:56:00.775Z,101081.41
2023-04-10T09:59:04.883Z,101056.47
2023-04-10T10:02:08.059Z,101070.97
2023-04-10T10:05:11.434Z,101067.59
2023-04-10T10:08:15.503Z,101056.28
2023-04-10T10:11:21.176Z,101055.34
2023-04-10T10:14:29.214Z,101061.38
2023-04-10T10:17:46.974Z,101061.13
2023-04-10T10:20:50.451Z,101060.28
2023-04-10T10:23:55.078Z,101057.16
2023-04-10T10:26:59.541Z,101056.59
2023-04-10T10:30:11.787Z,101065.50
2023-04-10T10:33:18.951Z,101057.25
2023-04-10T10:36:22.635Z,101043.97
2023-04-10T10:39:33.244Z,101051.75
2023-04-10T10:42:42.056Z,101048.97
2023-04-10T10:46:06.297Z,101050.50
2023-04-10T10:49:08.954Z,101045.22
2023-04-10T10:52:11.322Z,101049.28
2023-04-10T10:55:22.991Z,101051.88
2023-04-10T10:58:48.151Z,101046.66
2023-04-10T11:02:27.345Z,101041.94
2023-04-10T11:05:50.795Z,101047.41
2023-04-10T11:08:54.016Z,101042.31
2023-04-10T11:11:59.463Z,101046.69
2023-04-10T11:15:05.241Z,101042.09
2023-04-10T11:18:07.632Z,101042.22
2023-04-10T11:21:18.309Z,101042.44
2023-04-10T11:24:20.785Z,101041.34
2023-04-10T11:27:51.831Z,101037.50
2023-04-10T11:30:54.243Z,101018.44
2023-04-10T11:33:57.612Z,101023.16
2023-04-10T11:37:07.196Z,101031.56
2023-04-10T11:40:10.316Z,101018.69
2023-04-10T11:43:14.179Z,101033.50
2023-04-10T11:46:16.803Z,101036.53
2023-04-10T11:49:21.439Z,101025.56
2023-04-10T11:52:27.973Z,101041.75
2023-04-10T11:55:40.579Z,101020.25
2023-04-10T11:58:43.414Z,101019.66
2023-04-10T12:01:46.440Z,101035.88
2023-04-10T12:04:58.667Z,101037.56
2023-04-10T12:08:02.170Z,101028.00
2023-04-10T12:11:05.169Z,101037.16
2023-04-10T12:14:07.496Z,101029.16
2023-04-10T12:17:11.848Z,101031.34
2023-04-10T12:20:16.636Z,101023.06
2023-04-10T12:23:19.412Z,101023.34
2023-04-10T12:26:21.824Z,101004.28
2023-04-10T12:29:27.792Z,101008.62
2023-04-10T12:32:30.881Z,100997.44
2023-04-10T12:35:42.957Z,101008.38
2023-04-10T12:38:45.605Z,100979.06
2023-04-10T12:41:48.313Z,100986.34
2023-04-10T12:45:01.017Z,100974.53
2023-04-10T12:48:03.827Z,100979.09
2023-04-10T12:51:06.816Z,100957.59
2023-04-10T12:54:09.644Z,100961.56
2023-04-10T12:57:26.512Z,100951.00
2023-04-10T13:00:29.152Z,100948.31
2023-04-10T13:03:34.151Z,100945.59
2023-04-10T13:06:47.672Z,100923.56
2023-04-10T13:09:50.008Z,100935.06
2023-04-10T13:12:52.704Z,100929.75
2023-04-10T13:15:55.766Z,100922.69
2023-04-10T13:18:58.391Z,100909.53
2023-04-10T13:22:02.021Z,100918.34
2023-04-10T13:25:05.641Z,100911.72
2023-04-10T13:28:11.500Z,100902.75
2023-04-10T13:31:16.067Z,100892.88
2023-04-10T13:34:18.484Z,100909.62
2023-04-10T13:37:21.319Z,100898.19
2023-04-10T13:40:23.893Z,100889.75
2023-04-10T13:43:26.614Z,100884.66
2023-04-10T13:46:29.036Z,100877.19
2023-04-10T13:49:32.493Z,100854.19
2023-04-10T13:52:35.341Z,100864.06
2023-04-10T13:55:39.039Z,100854.81
2023-04-10T13:58:41.476Z,100853.22
2023-04-10T14:01:44.542Z,100851.22
2023-04-10T14:04:47.695Z,100831.25
2023-04-10T14:07:51.950Z,100836.53
2023-04-10T14:10:54.625Z,100835.12
2023-04-10T14:13:57.164Z,100831.94
2023-04-10T14:17:02.326Z,100830.81
2023-04-10T14:20:05.303Z,100825.72
2023-04-10T14:23:08.579Z,100795.00
2023-04-10T14:26:11.000Z,100799.50
2023-04-10T14:29:16.189Z,100803.78
2023-04-10T14:32:20.691Z,100801.81
2023-04-10T14:35:24.011Z,100800.47
2023-04-10T14:38:26.379Z,100798.84
2023-04-10T14:41:29.790Z,100776.88
2023-04-10T14:44:32.325Z,100788.91
2023-04-10T14:47:36.424Z,100783.09
2023-04-10T14:50:39.171Z,100781.78
2023-04-10T14:53:42.188Z,100770.72
2023-04-10T14:56:44.867Z,100777.34
2023-04-10T14:59:47.627Z,100767.97
2023-04-10T15:02:50.327Z,100759.19
2023-04-10T15:06:00.269Z,100758.84
2023-04-10T15:09:03.320Z,100754.06
2023-04-10T15:12:06.700Z,100755.91
2023-04-10T15:15:09.925Z,100750.13
2023-04-10T15:18:12.612Z,100747.81
2023-04-10T15:21:15.894Z,100735.59
2023-04-10T15:24:18.675Z,100735.44
2023-04-10T15:27:21.490Z,100728.97
2023-04-10T15:30:24.340Z,100721.91
2023-04-10T15:33:26.925Z,100719.75
2023-04-10T15:36:29.979Z,100716.09
2023-04-10T15:39:32.589Z,100725.50
2023-04-10T15:42:35.693Z,100721.53
2023-04-10T15:45:38.382Z,100721.72
2023-04-10T15:48:41.268Z,100718.72
2023-04-10T15:51:43.729Z,100718.59
2023-04-10T15:54:46.665Z,100709.66
2023-04-10T15:57:49.172Z,100711.44
2023-04-10T16:00:52.210Z,100712.31
2023-04-10T16:03:55.844Z,100708.97
2023-04-10T16:06:59.002Z,100708.34
2023-04-10T16:10:01.908Z,100698.13
2023-04-10T16:13:06.777Z,100684.41
2023-04-10T16:16:15.716Z,100700.09
2023-04-10T16:19:18.245Z,100685.75
2023-04-10T16:22:21.068Z,100695.34
2023-04-10T16:25:23.412Z,100688.69
2023-04-10T16:28:26.181Z,100683.56
2023-04-10T16:31:28.601Z,100681.03
2023-04-10T16:34:31.269Z,100686.97
2023-04-10T16:37:33.692Z,100666.12
2023-04-10T16:40:36.297Z,100682.09
2023-04-10T16:43:38.976Z,100663.44
2023-04-10T16:46:41.690Z,100671.34
2023-04-10T16:49:46.775Z,100683.72
2023-04-10T16:52:49.475Z,100679.28
2023-04-10T16:55:59.303Z,100661.13
2023-04-10T16:59:03.455Z,100675.47
2023-04-10T17:02:06.033Z,100685.03
2023-04-10T17:05:09.009Z,100673.63
2023-04-10T17:08:11.396Z,100657.75
2023-04-10T17:11:14.406Z,100669.66
2023-04-10T17:14:16.859Z,100674.25
2023-04-10T17:17:19.805Z,100677.16
2023-04-10T17:20:22.538Z,100678.47
2023-04-10T17:23:25.518Z,100676.28
2023-04-10T17:26:28.026Z,100679.25
2023-04-10T17:29:30.708Z,100677.72
2023-04-10T17:32:32.992Z,100665.53
2023-04-10T17:35:35.835Z,100672.09
2023-04-10T17:38:42.355Z,100675.72
2023-04-10T17:41:45.352Z,100681.94
2023-04-10T17:44:47.685Z,100681.78
2023-04-10T17:47:50.377Z,100692.75
2023-04-10T17:50:53.073Z,100695.91
2023-04-10T17:53:55.743Z,100676.34
2023-04-10T17:56:58.213Z,100692.72
2023-04-10T18:00:01.047Z,100701.91
2023-04-10T18:03:04.106Z,100698.09
2023-04-10T18:06:07.433Z,100700.59
2023-04-10T18:09:10.005Z,100713.72
2023-04-10T18:12:12.879Z,100714.06
2023-04-10T18:15:15.342Z,100687.81
2023-04-10T18:18:18.035Z,100710.47
2023-04-10T18:21:20.958Z,100695.00
2023-04-10T18:24:23.588Z,100702.44
2023-04-10T18:27:26.848Z,100716.03
2023-04-10T18:30:29.476Z,100714.81
2023-04-10T18:33:31.939Z,100701.87
2023-04-10T18:36:34.656Z,100712.34
2023-04-10T18:39:38.287Z,100688.84
2023-04-10T18:42:41.100Z,100703.88
2023-04-10T18:45:44.477Z,100696.91
2023-04-10T18:48:50.341Z,100701.81
2023-04-10T18:51:52.788Z,100721.66
2023-04-10T18:54:57.760Z,100734.50
2023-04-10T18:58:00.210Z,100712.88
2023-04-10T19:01:03.273Z,100739.06
2023-04-10T19:04:06.203Z,100730.38
2023-04-10T19:07:09.277Z,100746.03
2023-04-10T19:10:11.692Z,100752.75
2023-04-10T19:13:14.413Z,100754.50
2023-04-10T19:16:19.512Z,100751.31
2023-04-10T19:19:22.573Z,100752.63
2023-04-10T19:22:25.003Z,100751.06
2023-04-10T19:25:27.837Z,100734.09
2023-04-10T19:28:30.368Z,100742.03
2023-04-10T19:31:33.119Z,100746.00
2023-04-10T19:34:35.772Z,100746.00
2023-04-10T19:37:38.646Z,100739.81
2023-04-10T19:40:40.978Z,100745.16
2023-04-10T19:43:43.823Z,100733.69
2023-04-10T19:46:48.302Z,100737.28
2023-04-10T19:49:51.106Z,100718.44
2023-04-10T19:52:53.721Z,100728.28
2023-04-10T19:55:56.632Z,100726.19
2023-04-10T19:58:59.337Z,100721.28
2023-04-10T20:02:02.467Z,100710.09
2023-04-10T20:05:06.135Z,100725.84
2023-04-10T20:08:08.598Z,100717.34
2023-04-10T20:11:11.252Z,100716.97
2023-04-10T20:14:13.697Z,100698.81
2023-04-10T20:17:16.635Z,100713.31
2023-04-10T20:20:19.259Z,100694.47
2023-04-10T20:23:21.952Z,100702.38
2023-04-10T20:26:25.866Z,100698.91
2023-04-10T20:29:28.639Z,100713.22
2023-04-10T20:32:31.240Z,100713.22
2023-04-10T20:35:33.999Z,100706.91
2023-04-10T20:38:36.806Z,100711.66
2023-04-10T20:41:39.525Z,100690.72
2023-04-10T20:44:41.816Z,100701.03
2023-04-10T20:47:44.626Z,100680.31
2023-04-10T20:50:49.270Z,100685.88
2023-04-10T20:53:51.828Z,100687.84
2023-04-10T20:56:54.145Z,100686.25
2023-04-10T20:59:56.828Z,100695.38
2023-04-10T21:02:59.934Z,100701.53
2023-04-10T21:06:04.147Z,100698.25
2023-04-10T21:09:06.487Z,100687.69
2023-04-10T21:12:09.126Z,100691.13
2023-04-10T21:15:11.594Z,100693.34
2023-04-10T21:18:14.165Z,100689.44
2023-04-10T21:21:16.517Z,100667.50
2023-04-10T21:24:19.382Z,100680.34
2023-04-10T21:27:21.755Z,100685.34
2023-04-10T21:30:24.438Z,100670.56
2023-04-10T21:33:26.843Z,100677.41
2023-04-10T21:36:29.571Z,100679.38
2023-04-10T21:39:31.923Z,100661.38
2023-04-10T21:42:39.975Z,100692.38
2023-04-10T21:45:42.643Z,100686.66
2023-04-10T21:48:45.392Z,100661.53
2023-04-10T21:51:48.025Z,100680.72
2023-04-10T21:54:50.682Z,100671.34
2023-04-10T21:57:53.109Z,100674.69
2023-04-10T22:00:55.817Z,100651.75
2023-04-10T22:03:58.657Z,100644.03
2023-04-10T22:07:01.616Z,100665.09
2023-04-10T22:10:05.542Z,100645.44
2023-04-10T22:13:10.264Z,100652.06
2023-04-10T22:16:14.879Z,100654.91
2023-04-10T22:19:17.288Z,100648.28
2023-04-10T22:22:21.100Z,100650.53
2023-04-10T22:25:23.556Z,100644.72
2023-04-10T22:28:26.222Z,100638.72
2023-04-10T22:31:28.881Z,100660.09
2023-04-10T22:34:31.801Z,100655.97
2023-04-10T22:37:34.262Z,100657.09
2023-04-10T22:40:37.002Z,100648.28
2023-04-10T22:43:39.415Z,100641.66
2023-04-10T22:46:42.077Z,100644.44
2023-04-10T22:49:44.637Z,100636.97
2023-04-10T22:52:47.372Z,100631.47
2023-04-10T22:55:49.634Z,100639.19
2023-04-10T22:58:52.796Z,100650.06
2023-04-10T23:01:55.617Z,100644.03
2023-04-10T23:04:58.500Z,100639.91
2023-04-10T23:08:00.888Z,100644.66
2023-04-10T23:11:03.887Z,100626.44
2023-04-10T23:14:06.221Z,100612.31
2023-04-10T23:17:08.874Z,100640.03
2023-04-10T23:20:11.714Z,100610.72
2023-04-10T23:23:14.811Z,100633.47
2023-04-10T23:26:17.182Z,100632.97
2023-04-10T23:29:19.799Z,100633.06
2023-04-10T23:32:22.232Z,100609.84
2023-04-10T23:35:26.896Z,100606.53
2023-04-10T23:38:29.376Z,100620.91
2023-04-10T23:41:32.547Z,100617.31
2023-04-10T23:44:34.995Z,100613.72
2023-04-10T23:47:37.987Z,100611.78
2023-04-10T23:50:40.358Z,100616.56
2023-04-10T23:53:43.324Z,100599.69
2023-04-10T23:56:45.906Z,100613.84
2023-04-10T23:59:49.277Z,100606.09
